Aviation Digital Data Service (ADDS)

Output produced by METARs form (0904 UTC 13 August 2022)
found at http://www.aviationweather.gov/metar/data/
 
KFHR 130853Z AUTO 21003KT 10SM OVC050 16/11 A3009 RMK AO2 SLP188 T01610106 53018
KORS 130855Z AUTO 17007KT 10SM BKN060 16/12 A3007 RMK AO2
KBLI 130853Z AUTO 18009G17KT 10SM OVC041 18/14 A3008 RMK AO2 SLP192 T01780139 51019
KBLI 130535Z 1306/1406 19008KT P6SM BKN120 
     FM131000 17008KT P6SM BKN050 
     FM131400 17012KT P6SM BKN035 OVC050 
     FM131900 17008KT P6SM SCT035 BKN050 
     FM140000 18007KT P6SM BKN100
       
KBVS 130855Z AUTO 00000KT 10SM OVC032 16/14 A3011 RMK A01
KNUW 130853Z 16008KT 10SM BKN037 OVC050 16/12 A3014 RMK SLP206 T01610122 52018
TAF KNUW 1307/1407 VRB06KT 9999 VCSH FEW009 SCT015 BKN037 BKN080 QNH3001INS 
     TEMPO 1312/1318 13009G14KT 9000 -RA BR SCT008 BKN025 OVC060 
     FM131800 VRB06KT 9999 VCSH FEW009 SCT020 BKN045 QNH3010INS 
     TEMPO 1402/1406 FEW009 SCT020 BKN030 T11/1310Z T19/1321Z FS30190
       
KPAE 130853Z AUTO 17011KT 10SM OVC040 17/09 A3012 RMK AO2 SLP197 T01720089 51013
KPAE 130535Z 1306/1406 VRB06KT P6SM OVC040 
     FM131200 18006KT P6SM BKN020 OVC040 
     FM131900 23006KT P6SM SCT030 BKN050 
     FM140000 31005KT P6SM SCT250
       
KBFI 130853Z 21005KT 10SM OVC048 17/11 A3012 RMK AO2 SLP200 T01720111 51010
KBFI 130535Z 1306/1406 20006KT P6SM OVC040 
     FM131200 16004KT P6SM BKN030 OVC050 
     FM131800 23005KT P6SM SCT035 BKN050 
     FM140000 29006KT P6SM SCT250
       
KSEA 130853Z 19006KT 10SM OVC042 17/11 A3013 RMK AO2 SLP207 T01670106 51009
KSEA 130903Z 1309/1412 19007KT P6SM OVC040 
     FM131200 18005KT P6SM BKN025 OVC050 
     FM131900 22007KT P6SM SCT035 BKN050 
     FM132300 28006KT P6SM SCT250 
     FM140500 01003KT P6SM SCT250
       
CYYJ 130800Z 24003KT 170V280 20SM OVC048 18/12 A3005 RMK SC8 SLP177 DENSITY ALT 400FT
TAF CYYJ 130540Z 1306/1406 29010KT P6SM BKN050 BKN080 
     BECMG 1310/1312 20008KT 
     FM131200 20008KT P6SM SCT020 BKN040 
     TEMPO 1312/1319 5SM -SHRA BR BKN020 
     BECMG 1313/1315 14008KT 
     FM131900 13010KT P6SM BKN040 
     TEMPO 1319/1401 SCT040 
     FM140100 15008KT P6SM SCT040 RMK NXT FCST BY 131200Z
       
CYVR 130800Z 10011KT 15SM FEW042 SCT049 BKN073 17/15 A3004 RMK SC2SC2AC1 SLP176 DENSITY ALT 200FT
TAF CYVR 130840Z 1309/1412 11008KT P6SM SCT030 BKN050 
     TEMPO 1309/1313 BKN030 
     FM131300 11010KT P6SM SCT012 BKN025 
     TEMPO 1313/1320 P6SM -SHRA BKN012 
     BECMG 1317/1319 18008KT 
     FM132000 18008KT P6SM BKN030 
     FM140000 22008KT P6SM FEW030 SCT050 
     FM140900 09005KT P6SM SCT050 BKN120 RMK NXT FCST BY 131200Z